Portada
METAR-TAF:

METAR-TAF

Aeroports :

Base aèria

Niederstetten, Alemanya

latitud: 49-24N, longitud: 009-58E, altitud: 468 m

Observació

L'informe es va fer fa 1 hora i 12 minuts, a les 17:20 UTC
Vent 6 kt del Nord-Oest
Temperatura 23°C
Humitat 53%
Pressió 1016 hPa
Visibilitat 10 km o més
Escasses núvols a una alçada de 4000 ft
Núvols disperses a una alçada de 8000 ft
Cel ennuvolat a una alçada de 22000 ft

METAR: ETHN 191720Z 31006KT 9999 FEW040 SCT080 BKN220 23/13 Q1016 BLU+

Hora: 20:32 (18:32 UTC)

Pronòstic

L'informe es va fer fa 9 hores i 12 minuts, a les 09:20 UTC
Pronòstic vàlid del 19 a les 08 UTC al 19 a les 17 UTC
Vent 7 kt del Oest
Visibilitat: 1000 m
Escasses núvols a una alçada de 6000 ft
Cel ennuvolat a una alçada de 12000 ft

TAF: ETHN 190920Z 1908/1917 27007KT 9999 NSW FEW060 BKN120 CANCEL 1000

Observacions i pronòstics meteorològics de més de 4000 aeroports (METAR i TAF).

Les estacions disponibles són els punts grocs i vermells al mapa.

Posi el ratolí al punt desitjat per veure el nom de l'estació.

Feu clic per veure les observacions i els pronòstics meteorològics.

Per canviar el mapa: feu clic els botons verds amb una creu de color negre per apropar; al botó verd amb un guió per allunyar la imatge; o en les fletxes verdes per a mapes adjacents.


METAR-TAF: